Time;durP1;ratioP1;P1;durP2;ratioP2;P2;SDS_P1;SDS_P2;PMS_P1;PMS_P2;Temp;Humidity;BMP_temperature;BMP_pressure;BME280_temperature;BME280_humidity;BME280_pressure;Samples;Min_cycle;Max_cycle;Signal;HPM_P1;HPM_P2
2019/04/30 00:04:26;;;;;;;18.8;17;;;;;;;7.23;89.37402;961.9986;;;;
2019/04/30 00:06:10;;;;;;;19.6;17.7;;;;;;;7.24;89.11328;961.9767;;;;
2019/04/30 00:08:36;;;;;;;19.3;17.4;;;;;;;7.31;89.79102;961.9114;;;;
2019/04/30 00:11:08;;;;;;;19.3;17.4;;;;;;;7.32;89.44043;961.8842;;;;
2019/04/30 00:13:51;;;;;;;19.8;17.8;;;;;;;7.25;89.88281;961.9069;;;;
2019/04/30 00:16:16;;;;;;;19.2;17.4;;;;;;;7.3;89.92578;961.8817;;;;
2019/04/30 00:18:41;;;;;;;18.7;17;;;;;;;7.34;89.31641;961.9481;;;;
2019/04/30 00:21:07;;;;;;;19.8;17.9;;;;;;;7.19;89.17285;961.8764;;;;
2019/04/30 00:23:32;;;;;;;19.8;17.9;;;;;;;7.2;89.40332;961.897;;;;
2019/04/30 00:25:57;;;;;;;20.9;18.8;;;;;;;7.29;90.24414;961.9383;;;;
2019/04/30 00:28:24;;;;;;;19.9;17.9;;;;;;;7.14;89.51758;961.9791;;;;
2019/04/30 00:30:49;;;;;;;20.1;18.1;;;;;;;7.25;90.23633;961.9888;;;;
2019/04/30 00:33:14;;;;;;;20.8;18.7;;;;;;;7.22;89.875;961.9869;;;;
2019/04/30 00:35:40;;;;;;;21.2;19.1;;;;;;;7.08;90.50684;961.9704;;;;
2019/04/30 00:38:05;;;;;;;21.4;19.3;;;;;;;7.19;91.08008;961.8375;;;;
2019/04/30 00:40:30;;;;;;;23.1;20.8;;;;;;;7.24;91.87891;961.9075;;;;
2019/04/30 00:42:55;;;;;;;20.7;18.7;;;;;;;7.23;90.39063;961.8306;;;;
2019/04/30 00:45:20;;;;;;;20.4;18.5;;;;;;;7.09;90.38574;961.7709;;;;
2019/04/30 00:47:46;;;;;;;19.7;17.9;;;;;;;7.32;90.57129;961.8105;;;;
2019/04/30 00:50:11;;;;;;;20.1;18.2;;;;;;;7.31;90.27051;961.7899;;;;
2019/04/30 00:52:36;;;;;;;19.2;17.4;;;;;;;7.29;89.97949;961.7355;;;;
2019/04/30 00:55:02;;;;;;;21.4;19.2;;;;;;;7.25;90.25977;961.7076;;;;
2019/04/30 00:57:27;;;;;;;20.3;18.3;;;;;;;7.27;90.08984;961.7151;;;;
2019/04/30 00:59:54;;;;;;;19.8;17.9;;;;;;;7.25;90.17969;961.7424;;;;
2019/04/30 01:02:37;;;;;;;21.2;19.1;;;;;;;7.27;90.39063;961.7279;;;;
2019/04/30 01:04:47;;;;;;;19.6;17.7;;;;;;;7.31;90.39648;961.7469;;;;
2019/04/30 01:07:10;;;;;;;18.2;16.6;;;;;;;7.4;89.94727;961.6932;;;;
2019/04/30 01:09:35;;;;;;;21.4;19.4;;;;;;;7.23;90.23047;961.7009;;;;
2019/04/30 01:12:00;;;;;;;21.2;19.1;;;;;;;7.18;90.72168;961.6479;;;;
2019/04/30 01:14:25;;;;;;;20;18.1;;;;;;;7.21;90.41016;961.6933;;;;
2019/04/30 01:16:51;;;;;;;20.9;18.9;;;;;;;7.2;90.8877;961.6553;;;;
2019/04/30 01:19:16;;;;;;;22;19.8;;;;;;;7.26;90.71777;961.5944;;;;
2019/04/30 01:21:41;;;;;;;18.3;16.6;;;;;;;7.38;90.29688;961.5992;;;;
2019/04/30 01:24:06;;;;;;;19.6;17.8;;;;;;;7.26;90.38477;961.5472;;;;
2019/04/30 01:26:31;;;;;;;20.4;18.4;;;;;;;7.25;90.46484;961.5308;;;;
2019/04/30 01:28:59;;;;;;;20.2;18.2;;;;;;;7.27;90.61719;961.4903;;;;
2019/04/30 01:31:24;;;;;;;20.5;18.6;;;;;;;7.37;90.55762;961.509;;;;
2019/04/30 01:33:49;;;;;;;20.4;18.5;;;;;;;7.37;90.1377;961.4483;;;;
2019/04/30 01:36:14;;;;;;;20.3;18.4;;;;;;;7.32;90.12598;961.3265;;;;
2019/04/30 01:38:39;;;;;;;21;18.9;;;;;;;7.33;89.44043;961.2874;;;;
2019/04/30 01:41:04;;;;;;;21.3;19.2;;;;;;;7.28;90.26465;961.2303;;;;
2019/04/30 01:43:29;;;;;;;21.7;19.7;;;;;;;7.24;90.12012;961.3021;;;;
2019/04/30 01:45:54;;;;;;;22.1;20.1;;;;;;;7.24;90.61133;961.272;;;;
2019/04/30 01:48:19;;;;;;;22.4;20.3;;;;;;;7.35;90.41504;961.2601;;;;
2019/04/30 01:50:45;;;;;;;24.4;22;;;;;;;7.26;91.28906;961.2572;;;;
2019/04/30 01:53:10;;;;;;;24.4;21.9;;;;;;;7.26;91.58594;961.2142;;;;
2019/04/30 01:55:48;;;;;;;22.3;20.2;;;;;;;7.24;90.67969;961.1553;;;;
2019/04/30 01:58:18;;;;;;;22.6;20.4;;;;;;;7.29;90.37891;961.2167;;;;
2019/04/30 02:00:38;;;;;;;22.8;20.6;;;;;;;7.28;89.99121;961.2562;;;;
2019/04/30 02:02:52;;;;;;;23.5;21.3;;;;;;;7.28;91.31543;961.2781;;;;
2019/04/30 02:05:17;;;;;;;22.8;20.6;;;;;;;7.2;89.87109;961.3653;;;;
2019/04/30 02:07:43;;;;;;;25;22.5;;;;;;;7.14;91.27539;961.2701;;;;
2019/04/30 02:10:08;;;;;;;22.6;20.5;;;;;;;7.25;90.95605;961.2797;;;;
2019/04/30 02:12:33;;;;;;;22.9;20.6;;;;;;;7.3;90.49707;961.2375;;;;
2019/04/30 02:14:59;;;;;;;22.1;19.9;;;;;;;7.3;90.38281;961.2636;;;;
2019/04/30 02:17:24;;;;;;;22.5;20.4;;;;;;;7.37;89.94141;961.2067;;;;
2019/04/30 02:19:49;;;;;;;23.9;21.8;;;;;;;7.23;90.53906;961.2075;;;;
2019/04/30 02:22:14;;;;;;;24.1;21.8;;;;;;;7.19;91.42285;961.1674;;;;
2019/04/30 02:24:40;;;;;;;26.5;23.9;;;;;;;7.15;91.61816;961.2049;;;;
2019/04/30 02:27:04;;;;;;;24.7;22.4;;;;;;;7.24;91.08008;961.2202;;;;
2019/04/30 02:29:30;;;;;;;22.5;20.4;;;;;;;7.23;90.11719;961.1945;;;;
2019/04/30 02:31:55;;;;;;;24.6;22.3;;;;;;;7.18;90.76758;961.2332;;;;
2019/04/30 02:34:29;;;;;;;24.4;22.1;;;;;;;7.11;91.05176;961.277;;;;
2019/04/30 02:36:57;;;;;;;25.5;23;;;;;;;7.21;91.12891;961.2353;;;;
2019/04/30 02:39:11;;;;;;;24.6;22.3;;;;;;;7.25;90.92188;961.2927;;;;
2019/04/30 02:41:36;;;;;;;25.5;23;;;;;;;7.12;90.85938;961.246;;;;
2019/04/30 02:44:01;;;;;;;23.9;21.7;;;;;;;7.15;90.64941;961.248;;;;
2019/04/30 02:46:26;;;;;;;24.6;22.3;;;;;;;7.18;90.99805;961.2676;;;;
2019/04/30 02:48:51;;;;;;;25.2;22.8;;;;;;;7.13;90.83789;961.2454;;;;
2019/04/30 02:51:16;;;;;;;24.3;22.1;;;;;;;7.11;90.65137;961.1473;;;;
2019/04/30 02:53:41;;;;;;;28;25.3;;;;;;;7.07;91.66016;961.0936;;;;
2019/04/30 02:56:07;;;;;;;28;25.3;;;;;;;7.05;91.40332;961.0822;;;;
2019/04/30 02:58:32;;;;;;;29.9;27;;;;;;;6.93;92.07617;961.0861;;;;
2019/04/30 03:00:57;;;;;;;30;27.1;;;;;;;6.93;92.58984;960.9954;;;;
2019/04/30 03:03:22;;;;;;;27.4;24.8;;;;;;;7.16;92.35254;960.8842;;;;
2019/04/30 03:05:47;;;;;;;26.8;24.3;;;;;;;7.09;91.36719;960.9583;;;;
2019/04/30 03:08:13;;;;;;;27.6;25;;;;;;;7.08;91.45703;960.9763;;;;
2019/04/30 03:10:38;;;;;;;28.9;26.1;;;;;;;7.05;92.33887;961.0303;;;;
2019/04/30 03:13:03;;;;;;;27.2;24.6;;;;;;;7.08;92.1875;961.0452;;;;
2019/04/30 03:15:29;;;;;;;27.3;24.7;;;;;;;7.18;92.27539;960.9911;;;;
2019/04/30 03:18:30;;;;;;;27.4;24.7;;;;;;;7.2;92.06348;960.9422;;;;
2019/04/30 03:22:44;;;;;;;28.4;25.7;;;;;;;7.17;92.29785;961.0086;;;;
2019/04/30 03:25:09;;;;;;;25.6;23.2;;;;;;;7.25;91.8125;961.0203;;;;
2019/04/30 03:27:34;;;;;;;26.6;24.1;;;;;;;7.27;91.89453;961.0279;;;;
2019/04/30 03:29:59;;;;;;;27.7;25;;;;;;;7.14;91.84668;961.0108;;;;
2019/04/30 03:32:25;;;;;;;26.1;23.7;;;;;;;7.23;91.6582;960.9481;;;;
2019/04/30 03:34:50;;;;;;;26.8;24.3;;;;;;;7.26;91.75586;960.9378;;;;
2019/04/30 03:37:15;;;;;;;27.3;24.8;;;;;;;7.19;91.86816;960.9558;;;;
2019/04/30 03:39:40;;;;;;;26.9;24.5;;;;;;;7.07;91.88672;960.9339;;;;
2019/04/30 03:42:05;;;;;;;28.8;26.1;;;;;;;7.1;92.50879;960.9494;;;;
2019/04/30 03:44:30;;;;;;;28.7;26;;;;;;;7.16;93.01563;960.988;;;;
2019/04/30 03:46:56;;;;;;;25.9;23.5;;;;;;;7.34;92.31152;960.8758;;;;
2019/04/30 03:49:21;;;;;;;25.6;23.2;;;;;;;7.33;91.94238;960.7986;;;;
2019/04/30 03:51:46;;;;;;;25.6;23.3;;;;;;;7.27;91.54199;960.7859;;;;
2019/04/30 03:54:11;;;;;;;26.2;23.8;;;;;;;7.15;92.20117;960.7989;;;;
2019/04/30 03:56:37;;;;;;;27.4;24.8;;;;;;;7.25;91.94922;960.8176;;;;
2019/04/30 03:59:02;;;;;;;28.6;25.9;;;;;;;7.15;92.52246;960.7812;;;;
2019/04/30 04:02:37;;;;;;;27;24.5;;;;;;;7.28;92.82324;960.8761;;;;
2019/04/30 04:05:01;;;;;;;29;26.3;;;;;;;7.2;92.49805;960.9163;;;;
2019/04/30 04:10:59;;;;;;;28.2;25.6;;;;;;;7.19;92.32617;960.9252;;;;
2019/04/30 04:13:20;;;;;;;26.4;24;;;;;;;7.31;92.17871;960.9387;;;;
2019/04/30 04:15:46;;;;;;;29.1;26.4;;;;;;;7.23;92.91504;960.884;;;;
2019/04/30 04:18:11;;;;;;;27.4;24.9;;;;;;;7.29;92.75684;960.9526;;;;
2019/04/30 04:20:36;;;;;;;25.9;23.6;;;;;;;7.3;92.28125;960.9953;;;;
2019/04/30 04:23:03;;;;;;;27;24.4;;;;;;;7.35;93.14746;960.983;;;;
2019/04/30 04:25:28;;;;;;;28.3;25.7;;;;;;;7.27;92.64063;960.9627;;;;
2019/04/30 04:27:53;;;;;;;26.5;24.2;;;;;;;7.29;92.40332;960.9615;;;;
2019/04/30 04:30:18;;;;;;;26.2;23.9;;;;;;;7.27;92.05469;960.9113;;;;
2019/04/30 04:32:45;;;;;;;28.8;26.1;;;;;;;7.3;92.69043;960.9738;;;;
2019/04/30 04:35:10;;;;;;;29.8;27.1;;;;;;;7.25;92.8291;960.9731;;;;
2019/04/30 04:37:35;;;;;;;30.4;27.4;;;;;;;7.24;93.65918;961.0432;;;;
2019/04/30 04:40:00;;;;;;;29.7;26.9;;;;;;;7.14;93.68457;961.0196;;;;
2019/04/30 04:42:26;;;;;;;28.1;25.5;;;;;;;7.31;93.80176;961.0159;;;;
2019/04/30 04:44:51;;;;;;;28.2;25.6;;;;;;;7.23;93.16602;961.1215;;;;
2019/04/30 04:47:16;;;;;;;28.5;25.8;;;;;;;7.26;93.50293;961.18;;;;
2019/04/30 04:49:41;;;;;;;25;22.8;;;;;;;7.37;92.82227;961.176;;;;
2019/04/30 04:52:06;;;;;;;25.6;23.4;;;;;;;7.32;92.57031;961.1708;;;;
2019/04/30 04:54:32;;;;;;;25.9;23.6;;;;;;;7.29;93.4668;961.1383;;;;
2019/04/30 04:56:58;;;;;;;23;21;;;;;;;7.38;92.95898;961.0327;;;;
2019/04/30 04:59:23;;;;;;;22.1;20.2;;;;;;;7.38;92.94727;961.0975;;;;
2019/04/30 05:01:48;;;;;;;24.7;22.4;;;;;;;7.37;93.44629;961.1117;;;;
2019/04/30 05:04:14;;;;;;;19.7;18;;;;;;;7.49;92.82422;961.137;;;;
2019/04/30 05:06:39;;;;;;;20.6;18.8;;;;;;;7.46;92.49707;961.1091;;;;
2019/04/30 05:09:04;;;;;;;23;21;;;;;;;7.42;91.90625;961.0991;;;;
2019/04/30 05:11:29;;;;;;;19.7;18;;;;;;;7.52;92.35059;961.1217;;;;
2019/04/30 05:13:55;;;;;;;19.8;18.1;;;;;;;7.55;91.71582;961.1284;;;;
2019/04/30 05:16:19;;;;;;;22;20.1;;;;;;;7.46;92.55371;961.1522;;;;
2019/04/30 05:18:45;;;;;;;20.5;18.8;;;;;;;7.53;92.39746;961.1649;;;;
2019/04/30 05:21:10;;;;;;;21.2;19.4;;;;;;;7.57;92.09668;961.1227;;;;
2019/04/30 05:23:36;;;;;;;21;19.1;;;;;;;7.56;92.33496;961.1367;;;;
2019/04/30 05:26:01;;;;;;;21.4;19.5;;;;;;;7.59;92.50293;961.1733;;;;
2019/04/30 05:28:26;;;;;;;21.8;19.9;;;;;;;7.61;92.42676;961.2325;;;;
2019/04/30 05:30:51;;;;;;;23;20.9;;;;;;;7.46;91.91406;961.2047;;;;
2019/04/30 05:33:16;;;;;;;26.1;23.7;;;;;;;7.36;92.87305;961.2679;;;;
2019/04/30 05:35:42;;;;;;;21.8;19.9;;;;;;;7.43;92.3877;961.2151;;;;
2019/04/30 05:38:08;;;;;;;22.8;20.8;;;;;;;7.4;92.73633;961.2605;;;;
2019/04/30 05:40:33;;;;;;;24;21.9;;;;;;;7.41;92.98926;961.1902;;;;
2019/04/30 05:42:59;;;;;;;23.5;21.5;;;;;;;7.48;92.93457;961.1642;;;;
2019/04/30 05:45:26;;;;;;;23.9;21.8;;;;;;;7.49;93.0166;961.2285;;;;
2019/04/30 05:47:52;;;;;;;22.4;20.4;;;;;;;7.65;92.90332;961.1989;;;;
2019/04/30 05:50:20;;;;;;;24.1;22;;;;;;;7.54;92.22852;961.2158;;;;
2019/04/30 05:52:45;;;;;;;24.5;22.4;;;;;;;7.56;92.58594;961.2186;;;;
2019/04/30 05:55:10;;;;;;;22.8;20.7;;;;;;;7.63;92.73926;961.2527;;;;
2019/04/30 05:57:36;;;;;;;25.1;22.8;;;;;;;7.58;92.86621;961.2559;;;;
2019/04/30 06:00:04;;;;;;;24.4;22.2;;;;;;;7.64;92.71777;961.1872;;;;
2019/04/30 06:02:26;;;;;;;23.1;21.1;;;;;;;7.71;92.53906;961.2073;;;;
2019/04/30 06:04:51;;;;;;;22.4;20.5;;;;;;;7.73;91.8916;961.1545;;;;
2019/04/30 06:07:16;;;;;;;22.8;20.9;;;;;;;7.69;92.47656;961.2008;;;;
2019/04/30 06:09:59;;;;;;;22.3;20.3;;;;;;;7.74;92.44238;961.2877;;;;
2019/04/30 06:12:20;;;;;;;22;20.1;;;;;;;7.75;92.69727;961.2997;;;;
2019/04/30 06:14:40;;;;;;;22.4;20.5;;;;;;;7.77;92.18652;961.3285;;;;
2019/04/30 06:17:05;;;;;;;20.1;18.4;;;;;;;7.85;91.92773;961.4228;;;;
2019/04/30 06:19:22;;;;;;;23.1;21;;;;;;;7.78;91.9375;961.3583;;;;
2019/04/30 06:21:47;;;;;;;22.7;20.7;;;;;;;7.73;92.2002;961.3881;;;;
2019/04/30 06:24:12;;;;;;;21.4;19.6;;;;;;;7.74;92.35059;961.4045;;;;
2019/04/30 06:26:37;;;;;;;23.3;21.2;;;;;;;7.71;92.93945;961.4409;;;;
2019/04/30 06:29:03;;;;;;;23.5;21.4;;;;;;;7.72;92.67871;961.4707;;;;
2019/04/30 06:31:28;;;;;;;24;21.8;;;;;;;7.72;93.36426;961.4106;;;;
2019/04/30 06:33:53;;;;;;;23.1;20.9;;;;;;;7.74;92.93555;961.4216;;;;
2019/04/30 06:36:19;;;;;;;24.7;22.5;;;;;;;7.71;93.52051;961.4935;;;;
2019/04/30 06:38:44;;;;;;;20.7;18.9;;;;;;;7.83;92.81543;961.5064;;;;
2019/04/30 06:41:11;;;;;;;20.6;18.8;;;;;;;7.83;92.70117;961.4846;;;;
2019/04/30 06:43:36;;;;;;;19.4;17.8;;;;;;;7.88;92.79297;961.5154;;;;
2019/04/30 06:46:02;;;;;;;19.7;18;;;;;;;7.96;92.4082;961.4881;;;;
2019/04/30 06:48:27;;;;;;;21.6;19.6;;;;;;;7.9;92.83105;961.5488;;;;
2019/04/30 06:50:53;;;;;;;21.2;19.3;;;;;;;7.85;93.1875;961.4871;;;;
2019/04/30 06:53:18;;;;;;;21.5;19.6;;;;;;;7.87;93.14746;961.4813;;;;
2019/04/30 06:55:43;;;;;;;72.3;25.5;;;;;;;7.84;92.55664;961.4665;;;;
2019/04/30 06:58:09;;;;;;;23.3;17.7;;;;;;;7.97;92.99512;961.5565;;;;
2019/04/30 07:00:38;;;;;;;28.9;18.8;;;;;;;7.99;93.09082;961.6068;;;;
2019/04/30 07:03:03;;;;;;;21.4;19.1;;;;;;;7.89;92.875;961.5839;;;;
2019/04/30 07:05:28;;;;;;;20.8;18.8;;;;;;;7.93;93.02051;961.5812;;;;
2019/04/30 07:10:22;;;;;;;31.1;19.6;;;;;;;7.82;92.93066;961.6539;;;;
2019/04/30 07:12:49;;;;;;;21.6;19.4;;;;;;;7.91;93.83984;961.6602;;;;
2019/04/30 07:15:09;;;;;;;45.4;20.3;;;;;;;8;93.50488;961.68;;;;
2019/04/30 07:17:34;;;;;;;17.3;15.8;;;;;;;8.06;92.88867;961.7574;;;;
2019/04/30 07:19:59;;;;;;;18.1;16.4;;;;;;;8.16;92.08789;961.6591;;;;
2019/04/30 07:22:24;;;;;;;16.8;15.4;;;;;;;8.01;92.43359;961.6697;;;;
2019/04/30 07:24:49;;;;;;;23.7;20.1;;;;;;;7.96;93.3125;961.6788;;;;
2019/04/30 07:27:15;;;;;;;19.2;17.2;;;;;;;7.97;93.40723;961.6994;;;;
2019/04/30 07:29:40;;;;;;;20.2;18.3;;;;;;;8.03;93.35254;961.7639;;;;
2019/04/30 07:32:05;;;;;;;21.7;19.5;;;;;;;7.98;93.68359;961.7629;;;;
2019/04/30 07:34:32;;;;;;;18.9;17.2;;;;;;;8.13;93.52246;961.7222;;;;
2019/04/30 07:36:57;;;;;;;18.4;16.7;;;;;;;8.1;93.35449;961.7545;;;;
2019/04/30 07:39:22;;;;;;;17.8;16.2;;;;;;;8.18;93.13379;961.7701;;;;
2019/04/30 07:41:47;;;;;;;25.5;18.3;;;;;;;8.26;92.72559;961.7647;;;;
2019/04/30 07:44:12;;;;;;;17.4;15.7;;;;;;;8.32;92.42969;961.7813;;;;
2019/04/30 07:46:38;;;;;;;18.1;16.3;;;;;;;8.38;92.70703;961.8898;;;;
2019/04/30 07:49:03;;;;;;;17.1;15.5;;;;;;;8.24;92.00098;961.8743;;;;
2019/04/30 07:51:28;;;;;;;17.6;16;;;;;;;8.22;92.76367;961.8624;;;;
2019/04/30 07:53:53;;;;;;;18.4;16.5;;;;;;;8.34;93.08887;961.8661;;;;
2019/04/30 07:56:18;;;;;;;18.9;16.3;;;;;;;8.47;92.3916;961.8664;;;;
2019/04/30 07:58:43;;;;;;;27.9;18.3;;;;;;;8.5;92.74316;961.8901;;;;
2019/04/30 08:01:08;;;;;;;31.4;18.5;;;;;;;8.53;92.68066;961.9568;;;;
2019/04/30 08:04:42;;;;;;;18.6;16.6;;;;;;;8.58;92.10742;961.9266;;;;
2019/04/30 08:05:59;;;;;;;19.8;17.7;;;;;;;8.56;92.64258;961.9456;;;;
2019/04/30 08:08:24;;;;;;;21.5;19.2;;;;;;;8.61;93.6377;961.9379;;;;
2019/04/30 08:10:50;;;;;;;20.7;18.2;;;;;;;8.6;92.55859;962.0125;;;;
2019/04/30 08:13:15;;;;;;;19.7;17.7;;;;;;;8.75;92.61426;962.0008;;;;
2019/04/30 08:15:40;;;;;;;27.6;19.7;;;;;;;8.87;92.12305;962.0133;;;;
2019/04/30 08:18:24;;;;;;;23.7;19.7;;;;;;;8.94;91.79492;962.0037;;;;
2019/04/30 08:20:49;;;;;;;42;22.1;;;;;;;8.96;91.18066;962.0192;;;;
2019/04/30 08:23:14;;;;;;;66.5;26.1;;;;;;;8.99;90.36328;962.0599;;;;
2019/04/30 08:25:39;;;;;;;23.3;20.5;;;;;;;8.98;90.72656;962.0653;;;;
2019/04/30 08:28:04;;;;;;;24.3;20.8;;;;;;;9.01;90.50293;962.076;;;;
2019/04/30 08:30:30;;;;;;;181.6;42;;;;;;;9;91.79688;962.038;;;;
2019/04/30 08:32:55;;;;;;;33.2;26.9;;;;;;;9.02;91.31836;962.0452;;;;
2019/04/30 08:35:20;;;;;;;56.8;29.8;;;;;;;9.01;90.21582;962.0549;;;;
2019/04/30 08:37:46;;;;;;;37.7;28.5;;;;;;;9;90.9248;962.1503;;;;
2019/04/30 08:40:11;;;;;;;34.5;28.7;;;;;;;8.99;91.15234;962.1428;;;;
2019/04/30 08:42:37;;;;;;;31.9;28.5;;;;;;;8.98;90.0957;962.1694;;;;
2019/04/30 08:45:02;;;;;;;30.8;27.7;;;;;;;9.03;90.01367;962.1526;;;;
2019/04/30 08:47:27;;;;;;;36.7;29.4;;;;;;;9.02;90.96289;962.1883;;;;
2019/04/30 08:49:52;;;;;;;35.9;29.5;;;;;;;9;90.50098;962.2201;;;;
2019/04/30 08:52:17;;;;;;;31.4;28.2;;;;;;;9.02;89.19727;962.2274;;;;
2019/04/30 08:54:45;;;;;;;32.5;29.2;;;;;;;9.08;89.4834;962.2445;;;;
2019/04/30 08:57:11;;;;;;;32.7;29.2;;;;;;;9.07;89.17188;962.202;;;;
2019/04/30 08:59:35;;;;;;;34.6;30.8;;;;;;;9.15;89.58008;962.2083;;;;
2019/04/30 09:02:01;;;;;;;32.5;29.1;;;;;;;9.18;88.41602;962.2319;;;;
2019/04/30 09:04:28;;;;;;;32.1;27.9;;;;;;;9.37;86.74609;962.3123;;;;
2019/04/30 09:06:52;;;;;;;59.9;34.7;;;;;;;9.41;88.23242;962.2099;;;;
2019/04/30 09:09:21;;;;;;;36.9;31.7;;;;;;;9.57;89.33496;962.2667;;;;
2019/04/30 09:11:42;;;;;;;29.8;26.8;;;;;;;9.62;84.45215;962.2458;;;;
2019/04/30 09:14:09;;;;;;;30.8;27.5;;;;;;;9.68;85.94629;962.3312;;;;
2019/04/30 09:16:34;;;;;;;29.1;25.9;;;;;;;9.67;82.94531;962.3806;;;;
2019/04/30 09:19:01;;;;;;;30.1;26.8;;;;;;;9.51;82.14453;962.3541;;;;
2019/04/30 09:21:26;;;;;;;102.1;32.1;;;;;;;9.63;82.27148;962.3444;;;;
2019/04/30 09:23:51;;;;;;;44.9;27.6;;;;;;;9.61;81.13184;962.3026;;;;
2019/04/30 09:26:16;;;;;;;27.6;24.7;;;;;;;9.89;82.15039;962.371;;;;
2019/04/30 09:28:41;;;;;;;27.6;24.6;;;;;;;9.93;81.60645;962.2726;;;;
2019/04/30 09:31:06;;;;;;;26.3;23.4;;;;;;;10.01;79.73438;962.2926;;;;
2019/04/30 09:33:31;;;;;;;36.7;25.3;;;;;;;9.99;78.92676;962.3205;;;;
2019/04/30 09:35:56;;;;;;;25.8;23;;;;;;;10.03;79.29297;962.2991;;;;
2019/04/30 09:38:21;;;;;;;33.2;24.2;;;;;;;10.03;81.07422;962.26;;;;
2019/04/30 09:40:46;;;;;;;39.3;24.7;;;;;;;10.14;80.24414;962.2774;;;;
2019/04/30 09:43:11;;;;;;;25.3;22.7;;;;;;;10.21;79.4502;962.2545;;;;
2019/04/30 09:45:36;;;;;;;26.2;23.4;;;;;;;10.29;80.51172;962.2481;;;;
2019/04/30 09:48:02;;;;;;;27;24.2;;;;;;;10.44;80.92969;962.2358;;;;
2019/04/30 09:50:27;;;;;;;25.1;22.5;;;;;;;10.51;79.06738;962.3038;;;;
2019/04/30 09:52:52;;;;;;;23.7;21.3;;;;;;;10.45;77.2627;962.3047;;;;
2019/04/30 09:55:17;;;;;;;23;20.8;;;;;;;10.46;74.86914;962.2299;;;;
2019/04/30 09:57:42;;;;;;;23;20.6;;;;;;;10.52;76.72363;962.2028;;;;
2019/04/30 10:00:15;;;;;;;23.3;20.5;;;;;;;10.7;76.32715;962.123;;;;
2019/04/30 10:02:40;;;;;;;23.9;21.4;;;;;;;10.71;77.27441;962.1267;;;;
2019/04/30 10:05:05;;;;;;;23.4;20.9;;;;;;;10.77;76.49023;962.1782;;;;
2019/04/30 10:07:35;;;;;;;23.6;20.4;;;;;;;10.77;74.04883;962.0608;;;;
2019/04/30 10:10:02;;;;;;;22.7;20.3;;;;;;;10.87;73.72168;962.1219;;;;
2019/04/30 10:12:28;;;;;;;22.9;20.6;;;;;;;10.8;73.86914;962.0366;;;;
2019/04/30 10:14:55;;;;;;;20.7;18.5;;;;;;;10.88;72.90527;962.1033;;;;
2019/04/30 10:17:35;;;;;;;21.7;19.4;;;;;;;10.9;72.16016;962.05;;;;
2019/04/30 10:19:45;;;;;;;21.1;18.9;;;;;;;10.92;73.68359;962.0742;;;;
2019/04/30 10:22:10;;;;;;;21.3;19.1;;;;;;;10.89;74.0127;962.1462;;;;
2019/04/30 10:24:35;;;;;;;23.2;19.1;;;;;;;10.81;71.16797;962.1525;;;;
2019/04/30 10:27:02;;;;;;;21.6;19.3;;;;;;;10.85;70.78027;962.1671;;;;
2019/04/30 10:29:27;;;;;;;21.8;19.5;;;;;;;11.05;70.44434;962.1503;;;;
2019/04/30 10:31:52;;;;;;;22.9;19.4;;;;;;;11.26;72.05859;962.18;;;;
2019/04/30 10:34:17;;;;;;;20.6;18.5;;;;;;;11.45;69.62109;962.1029;;;;
2019/04/30 10:36:42;;;;;;;19.4;17.4;;;;;;;11.49;69.58105;962.0908;;;;
2019/04/30 10:39:07;;;;;;;20.3;17.4;;;;;;;11.56;65.81055;962.1102;;;;
2019/04/30 10:41:33;;;;;;;18.2;16.3;;;;;;;11.46;64.56152;962.0928;;;;
2019/04/30 10:43:58;;;;;;;17.4;15.6;;;;;;;11.53;64.61719;962.1348;;;;
2019/04/30 10:46:25;;;;;;;18.4;16.4;;;;;;;11.45;63.75098;962.1984;;;;
2019/04/30 10:48:50;;;;;;;18.6;16;;;;;;;11.21;63.29102;962.2188;;;;
2019/04/30 10:51:15;;;;;;;18.1;15.9;;;;;;;11.26;62.6748;962.1889;;;;
2019/04/30 10:53:40;;;;;;;16.7;15;;;;;;;11.44;60.74121;962.0466;;;;
2019/04/30 10:56:05;;;;;;;17.6;15;;;;;;;12.29;62.37305;962.1069;;;;
2019/04/30 10:58:31;;;;;;;38.1;16.9;;;;;;;13.36;56.5498;962.1219;;;;
2019/04/30 11:00:56;;;;;;;17.5;14.5;;;;;;;13.3;55.2334;962.0533;;;;
2019/04/30 11:03:21;;;;;;;15.8;14.1;;;;;;;13.41;56.67285;962.0645;;;;
2019/04/30 11:05:47;;;;;;;16;13.8;;;;;;;12.86;56.68164;962.0939;;;;
2019/04/30 11:08:12;;;;;;;16;14.3;;;;;;;13.2;56.69141;962.0665;;;;
2019/04/30 11:10:37;;;;;;;17;13.4;;;;;;;14.85;55.66309;962.051;;;;
2019/04/30 11:13:03;;;;;;;15.1;13.5;;;;;;;15.03;50.97754;962.1595;;;;
2019/04/30 11:15:29;;;;;;;18.3;14.4;;;;;;;14.34;53.40332;962.11;;;;
2019/04/30 11:17:54;;;;;;;16.6;14.5;;;;;;;13.69;55.89648;962.0815;;;;
2019/04/30 11:20:19;;;;;;;16;14.3;;;;;;;13.51;54.5293;962.1082;;;;
2019/04/30 11:22:44;;;;;;;17;14.8;;;;;;;14.57;56.60156;962.0882;;;;
2019/04/30 11:25:09;;;;;;;15.9;14.2;;;;;;;15.78;53.05469;962.0269;;;;
2019/04/30 11:27:34;;;;;;;15.2;13.2;;;;;;;15.44;47.38086;962.0049;;;;
2019/04/30 11:29:59;;;;;;;13.9;12.4;;;;;;;14.71;47.67383;961.9647;;;;
2019/04/30 11:32:27;;;;;;;15.3;13.7;;;;;;;14.01;50.70508;961.9595;;;;
2019/04/30 11:34:52;;;;;;;43.7;34.3;;;;;;;13.27;54.8584;962.048;;;;
2019/04/30 11:37:18;;;;;;;27.5;23.3;;;;;;;12.97;57.05469;961.9487;;;;
2019/04/30 11:39:43;;;;;;;18;15.9;;;;;;;12.77;57.12109;961.9103;;;;
2019/04/30 11:42:09;;;;;;;17.3;15.6;;;;;;;12.69;58.9502;961.9311;;;;
2019/04/30 11:44:35;;;;;;;19.6;16;;;;;;;12.9;58.2959;961.8809;;;;
2019/04/30 11:47:28;;;;;;;24.9;16.1;;;;;;;14.51;52.30957;961.8228;;;;
2019/04/30 11:49:59;;;;;;;17.6;14.7;;;;;;;14.67;52.1543;961.8463;;;;
2019/04/30 11:52:24;;;;;;;138.6;28.1;;;;;;;14.21;55.16406;961.8212;;;;
2019/04/30 11:54:50;;;;;;;23.3;15.2;;;;;;;13.81;55.2168;961.882;;;;
2019/04/30 11:57:15;;;;;;;18.8;15;;;;;;;14.17;53.70801;961.8167;;;;
2019/04/30 11:59:41;;;;;;;25.2;16.4;;;;;;;14.87;52.18945;961.8567;;;;
2019/04/30 12:02:18;;;;;;;18.9;15.6;;;;;;;14.3;53.375;961.813;;;;
2019/04/30 12:04:32;;;;;;;16.3;14.5;;;;;;;13.84;54.99023;961.875;;;;
2019/04/30 12:07:06;;;;;;;18.8;16.2;;;;;;;13.39;56.87793;961.8661;;;;
2019/04/30 12:11:48;;;;;;;38.9;18.4;;;;;;;13.67;57.34375;961.8608;;;;
2019/04/30 12:14:13;;;;;;;18.5;15.8;;;;;;;15.29;48.94727;961.8228;;;;
2019/04/30 12:16:38;;;;;;;20.8;15.8;;;;;;;16.19;52.06738;961.7595;;;;
2019/04/30 12:19:03;;;;;;;19;15.6;;;;;;;16.65;47.65234;961.8113;;;;
2019/04/30 12:21:28;;;;;;;19.4;14.8;;;;;;;17.28;46.37695;961.8876;;;;
2019/04/30 12:23:56;;;;;;;17;13.7;;;;;;;16.23;44.08496;961.7726;;;;
2019/04/30 12:26:21;;;;;;;18.6;14.7;;;;;;;15.49;49.91211;961.8152;;;;
2019/04/30 12:28:46;;;;;;;28.9;15.9;;;;;;;14.87;52.02832;961.8387;;;;
2019/04/30 12:31:12;;;;;;;24.3;15.6;;;;;;;14.53;52.41504;961.76;;;;
2019/04/30 12:33:38;;;;;;;19.1;15.5;;;;;;;14.02;54.25879;961.7744;;;;
2019/04/30 12:36:03;;;;;;;16.8;15;;;;;;;14.43;51.74121;961.7172;;;;
2019/04/30 12:38:29;;;;;;;73.2;20.1;;;;;;;15.67;49.11719;961.8403;;;;
2019/04/30 12:40:54;;;;;;;18.6;13.5;;;;;;;15.55;45.58887;961.8481;;;;
2019/04/30 12:43:19;;;;;;;20.8;13.5;;;;;;;14.68;47.86816;961.8061;;;;
2019/04/30 12:45:45;;;;;;;469.7;68.4;;;;;;;14.16;52.26758;961.7257;;;;
2019/04/30 12:48:15;;;;;;;17;13.3;;;;;;;13.84;48.75098;961.7701;;;;
2019/04/30 12:50:45;;;;;;;18.7;13;;;;;;;14.7;49.49805;961.6505;;;;
2019/04/30 12:53:13;;;;;;;24.2;13;;;;;;;15.17;45.79395;961.6638;;;;
2019/04/30 12:57:56;;;;;;;23.4;13.7;;;;;;;16.81;44.97168;961.7635;;;;
2019/04/30 13:00:21;;;;;;;48.3;17.6;;;;;;;16.44;43.90918;961.706;;;;
2019/04/30 13:02:46;;;;;;;52.5;20.7;;;;;;;16.16;44.89453;961.6577;;;;
2019/04/30 13:05:11;;;;;;;23.6;14;;;;;;;16.49;44.50781;961.6708;;;;
2019/04/30 13:07:37;;;;;;;19;14.6;;;;;;;16.17;43.12402;961.5769;;;;
2019/04/30 13:10:03;;;;;;;16.5;13.2;;;;;;;15.53;47.19336;961.4959;;;;
2019/04/30 13:12:28;;;;;;;64.5;17;;;;;;;15.68;46.58008;961.555;;;;
2019/04/30 13:14:53;;;;;;;19.7;13;;;;;;;15.91;45.125;961.5346;;;;
2019/04/30 13:17:19;;;;;;;14;12.1;;;;;;;16.18;43.43945;961.5014;;;;
2019/04/30 13:19:45;;;;;;;15.9;12.2;;;;;;;16.52;43.77637;961.5793;;;;
2019/04/30 13:22:10;;;;;;;24.5;12.5;;;;;;;16.9;41.03516;961.6258;;;;
2019/04/30 13:24:36;;;;;;;18.2;11.9;;;;;;;17.37;41.89648;961.57;;;;
2019/04/30 13:27:01;;;;;;;14.3;11.2;;;;;;;17.96;40.26758;961.517;;;;
2019/04/30 13:29:41;;;;;;;12.1;10.8;;;;;;;17.35;38.65723;961.4838;;;;
2019/04/30 13:31:51;;;;;;;13.1;11;;;;;;;16.49;42.5957;961.4856;;;;
2019/04/30 13:45:56;;;;;;;14.5;11.5;;;;;;;16.39;41.82617;961.5366;;;;
2019/04/30 13:48:21;;;;;;;14.8;13.2;;;;;;;16.72;44.625;961.4344;;;;
2019/04/30 13:50:48;;;;;;;16.2;11.7;;;;;;;16.2;42.14648;961.4338;;;;
2019/04/30 13:53:13;;;;;;;13.5;12.1;;;;;;;15.64;43.54883;961.4442;;;;
2019/04/30 13:55:39;;;;;;;16.6;12.4;;;;;;;15.95;43.87109;961.373;;;;
2019/04/30 13:58:05;;;;;;;14.1;11.9;;;;;;;15.69;42.79688;961.3519;;;;
2019/04/30 14:00:30;;;;;;;14.8;12.1;;;;;;;16.27;42.04883;961.3342;;;;
2019/04/30 14:03:08;;;;;;;13.5;11.2;;;;;;;16.93;43.08008;961.2849;;;;
2019/04/30 14:05:20;;;;;;;14.8;11.3;;;;;;;16.9;39.99609;961.3491;;;;
2019/04/30 14:07:52;;;;;;;13.2;10.3;;;;;;;16.99;39.45508;961.3434;;;;
2019/04/30 14:10:12;;;;;;;17;11;;;;;;;17.37;39.47656;961.3459;;;;
2019/04/30 14:12:43;;;;;;;15.2;10.8;;;;;;;17.87;41.89844;961.3063;;;;
2019/04/30 14:15:03;;;;;;;13.4;10.9;;;;;;;18.25;39.00586;961.2328;;;;
2019/04/30 14:17:28;;;;;;;20.4;11;;;;;;;18.03;38.17871;961.2491;;;;
2019/04/30 14:19:54;;;;;;;14;11;;;;;;;17.62;38.23633;961.2558;;;;
2019/04/30 14:22:19;;;;;;;12.2;10.8;;;;;;;17.15;40.29883;961.3304;;;;
2019/04/30 14:24:47;;;;;;;13.3;10.7;;;;;;;17.07;43.43359;961.3925;;;;
2019/04/30 14:27:12;;;;;;;13.2;11.8;;;;;;;16.6;44.35645;961.3859;;;;